createdAt,value
2018-01-14T00:00:07.500Z,30.40
2018-01-14T00:02:35.426Z,35.77
2018-01-14T00:05:03.206Z,37.70
2018-01-14T00:07:30.822Z,33.43
2018-01-14T00:09:59.039Z,35.20
2018-01-14T00:12:26.613Z,32.97
2018-01-14T00:14:54.196Z,34.50
2018-01-14T00:17:21.810Z,33.43
2018-01-14T00:19:49.852Z,30.70
2018-01-14T00:22:17.711Z,33.47
2018-01-14T00:24:45.351Z,31.90
2018-01-14T00:27:13.220Z,32.13
2018-01-14T00:29:41.318Z,29.73
2018-01-14T00:32:08.922Z,31.53
2018-01-14T00:34:36.530Z,28.80
2018-01-14T00:37:04.320Z,30.27
2018-01-14T00:39:33.064Z,30.53
2018-01-14T00:42:01.167Z,32.87
2018-01-14T00:44:28.805Z,32.43
2018-01-14T00:46:56.425Z,31.60
2018-01-14T00:49:24.802Z,29.13
2018-01-14T00:51:52.380Z,31.70
2018-01-14T00:54:20.981Z,31.33
2018-01-14T00:56:48.996Z,29.67
2018-01-14T00:59:16.871Z,31.33
2018-01-14T01:01:46.338Z,28.70
2018-01-14T01:04:13.989Z,31.40
2018-01-14T01:06:41.611Z,26.80
2018-01-14T01:09:09.183Z,28.67
2018-01-14T01:11:36.760Z,26.23
2018-01-14T01:14:04.386Z,27.87
2018-01-14T01:16:31.958Z,27.43
2018-01-14T01:19:00.191Z,28.33
2018-01-14T01:21:27.886Z,25.70
2018-01-14T01:23:55.496Z,27.63
2018-01-14T01:26:23.072Z,26.40
2018-01-14T01:28:50.674Z,28.03
2018-01-14T01:31:18.242Z,26.83
2018-01-14T01:33:46.609Z,26.47
2018-01-14T01:36:14.181Z,27.57
2018-01-14T01:38:41.809Z,25.87
2018-01-14T01:41:09.387Z,29.77
2018-01-14T01:43:37.013Z,28.33
2018-01-14T01:46:04.581Z,25.47
2018-01-14T01:48:32.945Z,26.03
2018-01-14T01:51:00.558Z,26.40
2018-01-14T01:53:28.126Z,24.80
2018-01-14T01:55:56.858Z,23.20
2018-01-14T01:58:24.423Z,27.57
2018-01-14T02:00:52.159Z,23.77
2018-01-14T02:03:19.779Z,24.47
2018-01-14T02:05:47.421Z,25.30
2018-01-14T02:08:15.251Z,23.93
2018-01-14T02:10:42.888Z,24.73
2018-01-14T02:13:10.489Z,24.83
2018-01-14T02:15:38.058Z,25.53
2018-01-14T02:18:05.674Z,26.57
2018-01-14T02:20:33.251Z,27.80
2018-01-14T02:23:00.903Z,24.23
2018-01-14T02:25:29.302Z,28.27
2018-01-14T02:27:56.910Z,28.33
2018-01-14T02:30:24.706Z,27.20
2018-01-14T02:32:52.275Z,29.37
2018-01-14T02:35:19.952Z,25.73
2018-01-14T02:37:47.514Z,26.80
2018-01-14T02:40:15.081Z,30.00
2018-01-14T02:42:42.683Z,26.33
2018-01-14T02:45:10.527Z,27.87
2018-01-14T02:47:38.291Z,25.77
2018-01-14T02:50:05.865Z,31.30
2018-01-14T02:52:33.486Z,28.33
2018-01-14T02:55:01.102Z,24.53
2018-01-14T02:57:28.673Z,27.57
2018-01-14T02:59:56.622Z,29.73
2018-01-14T03:02:24.233Z,29.17
2018-01-14T03:04:51.913Z,27.83
2018-01-14T03:07:19.523Z,28.90
2018-01-14T03:09:47.158Z,28.47
2018-01-14T03:12:14.897Z,28.00
2018-01-14T03:14:42.475Z,27.17
2018-01-14T03:17:10.095Z,30.13
2018-01-14T03:19:37.691Z,28.27
2018-01-14T03:22:05.253Z,32.30
2018-01-14T03:24:33.201Z,28.90
2018-01-14T03:27:00.914Z,28.47
2018-01-14T03:29:28.553Z,28.77
2018-01-14T03:31:56.251Z,28.60
2018-01-14T03:34:23.824Z,27.77
2018-01-14T03:36:51.394Z,28.87
2018-01-14T03:39:19.751Z,26.60
2018-01-14T03:41:47.382Z,27.63
2018-01-14T03:44:14.962Z,26.90
2018-01-14T03:46:42.526Z,28.30
2018-01-14T03:49:10.135Z,27.77
2018-01-14T03:51:38.625Z,28.43
2018-01-14T03:54:06.546Z,29.03
2018-01-14T03:56:34.116Z,27.67
2018-01-14T03:59:01.693Z,28.73
2018-01-14T04:01:30.061Z,25.40
2018-01-14T04:03:57.633Z,29.97
2018-01-14T04:06:25.249Z,26.23
2018-01-14T04:08:52.809Z,27.37
2018-01-14T04:11:20.374Z,27.77
2018-01-14T04:13:47.974Z,27.87
2018-01-14T04:16:16.310Z,27.07
2018-01-14T04:18:43.997Z,28.60
2018-01-14T04:21:11.564Z,26.73
2018-01-14T04:23:39.122Z,25.37
2018-01-14T04:26:06.811Z,28.10
2018-01-14T04:28:35.142Z,24.10
2018-01-14T04:31:02.713Z,27.33
2018-01-14T04:33:30.324Z,25.90
2018-01-14T04:35:57.900Z,26.53
2018-01-14T04:38:25.464Z,26.60
2018-01-14T04:40:53.228Z,27.23
2018-01-14T04:43:20.847Z,26.57
2018-01-14T04:45:49.195Z,28.80
2018-01-14T04:48:16.803Z,27.13
2018-01-14T04:50:44.414Z,27.53
2018-01-14T04:53:12.014Z,27.47
2018-01-14T04:55:39.606Z,26.37
2018-01-14T04:58:07.242Z,28.80
2018-01-14T05:00:34.851Z,23.93
2018-01-14T05:03:02.467Z,27.40
2018-01-14T05:05:30.034Z,25.47
2018-01-14T05:07:57.647Z,27.77
2018-01-14T05:10:25.298Z,28.17
2018-01-14T05:12:52.864Z,28.27
2018-01-14T05:15:20.627Z,28.07
2018-01-14T05:17:48.203Z,26.00
2018-01-14T05:20:15.835Z,28.03
2018-01-14T05:22:43.490Z,26.27
2018-01-14T05:25:11.101Z,27.97
2018-01-14T05:27:38.674Z,27.27
2018-01-14T05:30:06.274Z,26.70
2018-01-14T05:32:33.874Z,25.70
2018-01-14T05:35:01.434Z,29.47
2018-01-14T05:37:29.030Z,28.57
2018-01-14T05:39:56.630Z,27.17
2018-01-14T05:42:24.244Z,28.23
2018-01-14T05:44:51.844Z,27.57
2018-01-14T05:47:19.500Z,28.83
2018-01-14T05:49:47.064Z,29.53
2018-01-14T05:52:14.637Z,29.70
2018-01-14T05:54:42.247Z,27.77
2018-01-14T05:57:09.824Z,29.23
2018-01-14T05:59:38.329Z,27.83
2018-01-14T06:02:05.901Z,27.93
2018-01-14T06:04:33.639Z,27.40
2018-01-14T06:07:01.237Z,28.33
2018-01-14T06:09:28.838Z,27.30
2018-01-14T06:11:56.686Z,26.57
2018-01-14T06:14:24.260Z,27.67
2018-01-14T06:16:51.886Z,30.67
2018-01-14T06:19:19.465Z,28.20
2018-01-14T06:21:47.039Z,28.77
2018-01-14T06:24:14.787Z,28.97
2018-01-14T06:26:42.619Z,31.30
2018-01-14T06:29:10.264Z,28.23
2018-01-14T06:31:37.860Z,29.07
2018-01-14T06:34:05.889Z,29.27
2018-01-14T06:36:33.456Z,29.00
2018-01-14T06:39:01.019Z,28.27
2018-01-14T06:41:28.638Z,29.43
2018-01-14T06:43:56.197Z,30.00
2018-01-14T06:46:23.763Z,29.17
2018-01-14T06:48:51.379Z,29.57
2018-01-14T06:51:18.965Z,26.27
2018-01-14T06:53:46.586Z,31.23
2018-01-14T06:56:14.219Z,28.30
2018-01-14T06:58:41.823Z,30.40
2018-01-14T07:01:09.426Z,31.10
2018-01-14T07:03:36.996Z,30.90
2018-01-14T07:06:04.609Z,30.17
2018-01-14T07:08:32.247Z,26.77
2018-01-14T07:11:00.579Z,28.00
2018-01-14T07:13:28.191Z,29.53
2018-01-14T07:15:55.775Z,26.43
2018-01-14T07:18:23.348Z,30.10
2018-01-14T07:20:53.321Z,29.63
2018-01-14T07:23:20.892Z,26.53
2018-01-14T07:25:50.539Z,27.93
2018-01-14T07:28:18.112Z,31.23
2018-01-14T07:30:48.185Z,28.30
2018-01-14T07:33:15.793Z,27.73
2018-01-14T07:35:43.362Z,29.90
2018-01-14T07:38:10.984Z,30.33
2018-01-14T07:40:40.989Z,31.73
2018-01-14T07:43:08.553Z,31.90
2018-01-14T07:45:39.623Z,31.17
2018-01-14T07:48:07.355Z,29.50
2018-01-14T07:50:37.239Z,29.83
2018-01-14T07:53:07.311Z,29.60
2018-01-14T07:55:34.874Z,28.93
2018-01-14T07:58:02.491Z,28.20
2018-01-14T08:00:30.159Z,28.47
2018-01-14T08:02:57.878Z,31.23
2018-01-14T08:05:25.481Z,30.07
2018-01-14T08:07:53.033Z,29.67
2018-01-14T08:10:21.398Z,29.80
2018-01-14T08:12:49.140Z,28.23
2018-01-14T08:15:16.722Z,27.43
2018-01-14T08:17:44.288Z,29.07
2018-01-14T08:20:11.932Z,28.97
2018-01-14T08:22:39.502Z,29.00
2018-01-14T08:25:07.111Z,28.60
2018-01-14T08:27:36.695Z,29.00
2018-01-14T08:30:05.076Z,27.30
2018-01-14T08:32:33.414Z,30.13
2018-01-14T08:35:00.993Z,26.90
2018-01-14T08:37:28.603Z,26.87
2018-01-14T08:39:56.221Z,31.07
2018-01-14T08:42:23.817Z,27.60
2018-01-14T08:44:51.388Z,27.30
2018-01-14T08:47:20.460Z,28.77
2018-01-14T08:49:48.064Z,26.93
2018-01-14T08:52:15.665Z,27.43
2018-01-14T08:54:43.242Z,27.90
2018-01-14T08:57:10.820Z,27.83
2018-01-14T08:59:38.426Z,23.97
2018-01-14T09:02:06.922Z,25.63
2018-01-14T09:04:35.766Z,23.80
2018-01-14T09:07:05.281Z,23.50
2018-01-14T09:09:34.970Z,23.63
2018-01-14T09:12:02.663Z,23.67
2018-01-14T09:14:33.847Z,24.40
2018-01-14T09:17:02.214Z,25.10
2018-01-14T09:19:29.817Z,26.30
2018-01-14T09:21:57.522Z,24.53
2018-01-14T09:24:25.096Z,24.17
2018-01-14T09:26:52.674Z,25.53
2018-01-14T09:29:20.286Z,23.63
2018-01-14T09:31:47.854Z,26.20
2018-01-14T09:34:15.815Z,25.30
2018-01-14T09:36:43.422Z,25.40
2018-01-14T09:39:11.045Z,25.93
2018-01-14T09:41:38.610Z,25.33
2018-01-14T09:44:06.182Z,22.43
2018-01-14T09:46:33.792Z,22.43
2018-01-14T09:49:01.400Z,23.27
2018-01-14T09:51:28.978Z,25.23
2018-01-14T09:53:56.586Z,23.50
2018-01-14T09:56:26.471Z,25.53
2018-01-14T09:58:54.081Z,22.57
2018-01-14T10:01:23.898Z,23.93
2018-01-14T10:03:51.509Z,23.77
2018-01-14T10:06:20.157Z,24.80
2018-01-14T10:08:47.819Z,25.50
2018-01-14T10:11:15.430Z,27.27
2018-01-14T10:13:43.766Z,25.53
2018-01-14T10:16:12.593Z,26.33
2018-01-14T10:18:42.529Z,25.93
2018-01-14T10:21:10.482Z,27.67
2018-01-14T10:23:38.396Z,26.93
2018-01-14T10:26:07.731Z,28.53
2018-01-14T10:28:35.393Z,26.83
2018-01-14T10:31:02.971Z,24.60
2018-01-14T10:33:32.472Z,26.87
2018-01-14T10:36:00.414Z,28.30
2018-01-14T10:38:30.198Z,24.63
2018-01-14T10:40:58.018Z,26.30
2018-01-14T10:43:26.176Z,25.20
2018-01-14T10:45:54.010Z,26.87
2018-01-14T10:48:21.783Z,25.80
2018-01-14T10:50:49.515Z,28.37
2018-01-14T10:53:17.300Z,26.20
2018-01-14T10:55:45.096Z,26.27
2018-01-14T10:58:12.701Z,24.83
2018-01-14T11:00:46.779Z,25.67
2018-01-14T11:03:16.097Z,25.23
2018-01-14T11:05:43.672Z,22.40
2018-01-14T11:08:11.290Z,25.13
2018-01-14T11:10:38.866Z,28.20
2018-01-14T11:15:46.075Z,24.63
2018-01-14T11:18:14.966Z,26.13
2018-01-14T11:20:42.535Z,23.73
2018-01-14T11:23:10.166Z,24.77
2018-01-14T11:25:37.743Z,25.70
2018-01-14T11:28:05.321Z,26.83
2018-01-14T11:30:33.707Z,25.27
2018-01-14T11:33:05.832Z,24.87
2018-01-14T11:35:33.414Z,24.13
2018-01-14T11:38:02.439Z,27.37
2018-01-14T11:40:30.048Z,27.43
2018-01-14T11:42:57.672Z,22.87
2018-01-14T11:45:27.137Z,23.90
2018-01-14T11:47:54.763Z,21.07
2018-01-14T11:50:24.863Z,23.23
2018-01-14T11:52:52.449Z,20.43
2018-01-14T11:55:21.295Z,24.13
2018-01-14T11:57:48.873Z,20.63
2018-01-14T12:00:18.662Z,20.63
2018-01-14T12:02:46.279Z,23.53
2018-01-14T12:05:13.901Z,20.93
2018-01-14T12:07:41.486Z,22.73
2018-01-14T12:10:09.083Z,20.37
2018-01-14T12:12:36.710Z,21.23
2018-01-14T12:15:04.856Z,21.63
2018-01-14T12:17:33.043Z,20.77
2018-01-14T12:20:00.896Z,20.13
2018-01-14T12:22:28.501Z,22.27
2018-01-14T12:24:56.130Z,21.23
2018-01-14T12:27:23.711Z,19.97
2018-01-14T12:29:51.321Z,21.67
2018-01-14T12:32:18.961Z,21.63
2018-01-14T12:34:52.383Z,18.57
2018-01-14T12:37:19.955Z,20.63
2018-01-14T12:39:48.303Z,23.00
2018-01-14T12:42:15.916Z,22.13
2018-01-14T12:44:43.495Z,20.83
2018-01-14T12:47:11.113Z,22.47
2018-01-14T12:49:38.737Z,21.13
2018-01-14T12:52:06.315Z,20.00
2018-01-14T12:54:33.936Z,22.87
2018-01-14T12:57:01.574Z,19.93
2018-01-14T12:59:29.164Z,23.10
2018-01-14T13:01:56.743Z,20.03
2018-01-14T13:04:24.360Z,21.57
2018-01-14T13:06:51.972Z,20.63
2018-01-14T13:09:19.552Z,20.77
2018-01-14T13:11:47.182Z,22.30
2018-01-14T13:14:14.774Z,20.47
2018-01-14T13:16:42.357Z,19.47
2018-01-14T13:19:10.765Z,21.83
2018-01-14T13:21:38.392Z,17.43
2018-01-14T13:24:05.979Z,18.70
2018-01-14T13:26:33.604Z,19.03
2018-01-14T13:29:01.186Z,19.30
2018-01-14T13:31:29.531Z,20.07
2018-01-14T13:33:57.147Z,19.90
2018-01-14T13:36:24.832Z,20.03
2018-01-14T13:38:52.443Z,19.30
2018-01-14T13:41:20.019Z,20.57
2018-01-14T13:43:47.632Z,19.30
2018-01-14T13:46:17.666Z,22.20
2018-01-14T13:48:47.187Z,19.97
2018-01-14T13:51:14.796Z,19.37
2018-01-14T13:53:42.411Z,20.80
2018-01-14T13:56:10.800Z,20.93
2018-01-14T13:58:41.529Z,20.57
2018-01-14T14:01:11.946Z,21.50
2018-01-14T14:03:40.326Z,21.47
2018-01-14T14:06:08.672Z,21.60
2018-01-14T14:08:36.294Z,21.13
2018-01-14T14:11:03.895Z,24.37
2018-01-14T14:13:31.517Z,21.20
2018-01-14T14:15:59.100Z,23.03
2018-01-14T14:18:26.675Z,19.23
2018-01-14T14:20:57.076Z,20.43
2018-01-14T14:23:29.302Z,21.13
2018-01-14T14:25:57.270Z,21.80
2018-01-14T14:28:24.859Z,24.83
2018-01-14T14:30:52.564Z,27.60
2018-01-14T14:33:20.140Z,25.73
2018-01-14T14:35:47.719Z,26.60
2018-01-14T14:38:15.340Z,27.13
2018-01-14T14:40:42.912Z,30.33
2018-01-14T14:43:10.652Z,27.23
2018-01-14T14:45:38.226Z,30.13
2018-01-14T14:48:05.862Z,30.30
2018-01-14T14:50:34.570Z,28.70
2018-01-14T14:53:03.261Z,30.83
2018-01-14T14:55:31.372Z,27.97
2018-01-14T14:57:59.380Z,29.00
2018-01-14T15:00:27.606Z,31.07
2018-01-14T15:02:56.499Z,29.20
2018-01-14T15:05:25.259Z,29.20
2018-01-14T15:07:53.538Z,32.83
2018-01-14T15:10:21.527Z,32.37
2018-01-14T15:12:49.624Z,31.57
2018-01-14T15:15:17.683Z,33.70
2018-01-14T15:17:45.889Z,35.43
2018-01-14T15:20:14.007Z,34.87
2018-01-14T15:22:42.035Z,37.83
2018-01-14T15:25:10.020Z,30.87
2018-01-14T15:27:38.108Z,35.53
2018-01-14T15:30:06.967Z,36.63
2018-01-14T15:32:36.965Z,36.30
2018-01-14T15:35:04.693Z,38.17
2018-01-14T15:37:32.725Z,37.70
2018-01-14T15:40:01.665Z,37.70
2018-01-14T15:42:30.712Z,36.57
2018-01-14T15:44:58.830Z,40.30
2018-01-14T15:47:26.489Z,41.50
2018-01-14T15:49:54.108Z,41.10
2018-01-14T15:52:21.743Z,40.17
2018-01-14T15:54:50.532Z,40.33
2018-01-14T15:57:18.148Z,40.00
2018-01-14T15:59:45.860Z,43.30
2018-01-14T16:02:13.491Z,45.83
2018-01-14T16:04:41.839Z,43.13
2018-01-14T16:07:09.461Z,42.93
2018-01-14T16:09:37.043Z,42.73
2018-01-14T16:12:05.255Z,42.93
2018-01-14T16:14:34.129Z,38.17
2018-01-14T16:17:02.173Z,42.67
2018-01-14T16:19:30.195Z,43.37
2018-01-14T16:21:59.553Z,44.77
2018-01-14T16:24:30.056Z,45.20
2018-01-14T16:26:59.316Z,41.37
2018-01-14T16:29:28.300Z,48.30
2018-01-14T16:31:56.479Z,47.57
2018-01-14T16:34:26.149Z,44.50
2018-01-14T16:36:54.086Z,43.70
2018-01-14T16:39:23.382Z,46.87
2018-01-14T16:41:51.434Z,42.70
2018-01-14T16:44:19.349Z,47.27
2018-01-14T16:46:47.866Z,44.60
2018-01-14T16:49:15.554Z,43.30
2018-01-14T16:51:43.362Z,44.57
2018-01-14T16:54:11.092Z,45.73
2018-01-14T16:56:38.941Z,49.37
2018-01-14T16:59:06.852Z,51.87
2018-01-14T17:01:34.612Z,49.63
2018-01-14T17:04:02.275Z,45.67
2018-01-14T17:06:30.155Z,51.53
2018-01-14T17:08:58.640Z,49.53
2018-01-14T17:11:26.400Z,47.80
2018-01-14T17:13:54.023Z,49.33
2018-01-14T17:16:21.690Z,42.57
2018-01-14T17:18:49.324Z,46.43
2018-01-14T17:21:16.915Z,49.40
2018-01-14T17:23:44.550Z,49.23
2018-01-14T17:26:12.373Z,45.40
2018-01-14T17:28:39.952Z,49.07
2018-01-14T17:31:07.604Z,53.33
2018-01-14T17:33:35.190Z,51.63
2018-01-14T17:36:02.773Z,44.93
2018-01-14T17:38:30.396Z,54.53
2018-01-14T17:40:57.990Z,53.77
2018-01-14T17:43:25.610Z,49.03
2018-01-14T17:45:53.195Z,49.33
2018-01-14T17:48:21.534Z,50.87
2018-01-14T17:50:49.164Z,54.10
2018-01-14T17:53:16.756Z,52.27
2018-01-14T17:55:44.408Z,56.73
2018-01-14T17:58:11.987Z,49.40
2018-01-14T18:00:39.687Z,57.93
2018-01-14T18:03:07.271Z,53.57
2018-01-14T18:05:34.885Z,52.37
2018-01-14T18:08:02.572Z,49.10
2018-01-14T18:10:30.171Z,56.43
2018-01-14T18:12:57.803Z,52.10
2018-01-14T18:15:25.398Z,53.23
2018-01-14T18:17:53.031Z,54.83
2018-01-14T18:20:20.615Z,53.00
2018-01-14T18:22:48.355Z,55.27
2018-01-14T18:25:15.981Z,51.47
2018-01-14T18:27:43.565Z,52.00
2018-01-14T18:30:11.196Z,52.50
2018-01-14T18:32:38.836Z,61.03
2018-01-14T18:35:06.424Z,59.07
2018-01-14T18:37:34.643Z,56.67
2018-01-14T18:40:02.267Z,55.00
2018-01-14T18:42:29.941Z,57.77
2018-01-14T18:44:58.809Z,64.17
2018-01-14T18:47:26.801Z,60.87
2018-01-14T18:49:54.465Z,61.33
2018-01-14T18:52:22.803Z,61.33
2018-01-14T18:54:50.433Z,58.17
2018-01-14T18:57:18.017Z,60.43
2018-01-14T18:59:45.627Z,61.17
2018-01-14T19:02:13.213Z,54.97
2018-01-14T19:04:40.847Z,60.77
2018-01-14T19:07:08.434Z,53.70
2018-01-14T19:09:36.044Z,54.30
2018-01-14T19:12:03.666Z,59.10
2018-01-14T19:14:31.258Z,56.23
2018-01-14T19:16:58.878Z,54.47
2018-01-14T19:19:26.467Z,57.03
2018-01-14T19:21:54.108Z,55.87
2018-01-14T19:24:21.730Z,56.27
2018-01-14T19:26:49.356Z,54.83
2018-01-14T19:29:16.945Z,55.80
2018-01-14T19:31:44.577Z,53.33
2018-01-14T19:34:12.269Z,58.50
2018-01-14T19:36:39.861Z,54.53
2018-01-14T19:39:08.250Z,60.60
2018-01-14T19:41:35.885Z,60.97
2018-01-14T19:44:03.463Z,58.47
2018-01-14T19:46:31.808Z,63.33
2018-01-14T19:48:59.440Z,56.27
2018-01-14T19:51:27.363Z,57.07
2018-01-14T19:53:55.712Z,63.07
2018-01-14T19:56:23.328Z,59.50
2018-01-14T19:58:50.950Z,57.83
2018-01-14T20:01:18.532Z,57.20
2018-01-14T20:03:46.168Z,62.10
2018-01-14T20:06:13.739Z,57.67
2018-01-14T20:08:41.318Z,57.63
2018-01-14T20:11:08.962Z,60.10
2018-01-14T20:13:36.542Z,60.03
2018-01-14T20:16:04.120Z,58.23
2018-01-14T20:18:31.739Z,58.93
2018-01-14T20:20:59.325Z,57.03
2018-01-14T20:23:27.710Z,60.77
2018-01-14T20:25:56.051Z,53.47
2018-01-14T20:28:23.671Z,55.70
2018-01-14T20:30:51.308Z,51.67
2018-01-14T20:33:19.656Z,51.53
2018-01-14T20:35:47.244Z,52.53
2018-01-14T20:38:14.865Z,53.27
2018-01-14T20:40:42.453Z,54.30
2018-01-14T20:43:10.071Z,52.40
2018-01-14T20:45:37.649Z,55.70
2018-01-14T20:48:05.352Z,51.63
2018-01-14T20:50:33.701Z,50.27
2018-01-14T20:53:01.296Z,48.93
2018-01-14T20:55:29.683Z,53.93
2018-01-14T20:57:57.317Z,47.03
2018-01-14T21:00:24.967Z,50.03
2018-01-14T21:02:52.547Z,49.27
2018-01-14T21:05:20.947Z,48.07
2018-01-14T21:07:48.569Z,50.80
2018-01-14T21:10:16.199Z,44.40
2018-01-14T21:12:43.823Z,47.07
2018-01-14T21:15:11.405Z,49.07
2018-01-14T21:17:38.996Z,51.50
2018-01-14T21:20:06.621Z,45.10
2018-01-14T21:22:34.217Z,47.77
2018-01-14T21:25:01.874Z,49.07
2018-01-14T21:27:29.529Z,46.50
2018-01-14T21:29:57.155Z,42.93
2018-01-14T21:32:24.872Z,47.90
2018-01-14T21:34:52.494Z,50.67
2018-01-14T21:37:20.094Z,48.27
2018-01-14T21:39:47.738Z,46.07
2018-01-14T21:42:15.317Z,48.83
2018-01-14T21:44:42.945Z,44.07
2018-01-14T21:47:10.751Z,43.20
2018-01-14T21:49:38.329Z,47.50
2018-01-14T21:52:05.958Z,48.13
2018-01-14T21:54:33.732Z,44.13
2018-01-14T21:57:01.431Z,45.90
2018-01-14T21:59:29.810Z,48.20
2018-01-14T22:01:57.398Z,45.43
2018-01-14T22:04:25.040Z,46.17
2018-01-14T22:06:52.631Z,41.37
2018-01-14T22:09:20.247Z,45.27
2018-01-14T22:11:47.892Z,51.03
2018-01-14T22:14:15.511Z,46.37
2018-01-14T22:16:43.141Z,40.27
2018-01-14T22:19:10.732Z,44.27
2018-01-14T22:21:38.447Z,46.97
2018-01-14T22:24:06.042Z,40.60
2018-01-14T22:26:34.391Z,45.00
2018-01-14T22:29:02.017Z,42.77
2018-01-14T22:31:29.611Z,41.63
2018-01-14T22:33:57.228Z,46.03
2018-01-14T22:36:24.959Z,47.07
2018-01-14T22:38:52.580Z,45.43
2018-01-14T22:41:20.157Z,43.80
2018-01-14T22:43:47.740Z,43.27
2018-01-14T22:46:16.119Z,43.33
2018-01-14T22:48:44.469Z,39.93
2018-01-14T22:51:12.088Z,44.23
2018-01-14T22:53:39.712Z,43.87
2018-01-14T22:56:07.339Z,42.60
2018-01-14T22:58:35.047Z,41.73
2018-01-14T23:01:02.712Z,43.27
2018-01-14T23:03:31.080Z,44.63
2018-01-14T23:05:58.714Z,49.17
2018-01-14T23:08:26.624Z,42.03
2018-01-14T23:10:54.976Z,41.50
2018-01-14T23:13:22.560Z,42.90
2018-01-14T23:15:51.868Z,41.07
2018-01-14T23:18:19.470Z,46.73
2018-01-14T23:20:47.089Z,45.63
2018-01-14T23:23:14.679Z,42.93
2018-01-14T23:25:42.290Z,44.87
2018-01-14T23:28:09.917Z,41.53
2018-01-14T23:30:37.508Z,42.43
2018-01-14T23:33:05.167Z,42.33
2018-01-14T23:35:32.793Z,45.50
2018-01-14T23:38:00.376Z,43.53
2018-01-14T23:40:28.054Z,37.97
2018-01-14T23:42:55.616Z,40.53
2018-01-14T23:45:23.197Z,41.20
2018-01-14T23:47:50.811Z,45.10
2018-01-14T23:50:18.427Z,43.83
2018-01-14T23:52:46.047Z,42.03
2018-01-14T23:55:13.725Z,46.97
2018-01-14T23:57:41.306Z,37.07
